Time;durP1;ratioP1;P1;durP2;ratioP2;P2;SDS_P1;SDS_P2;PMS_P1;PMS_P2;Temp;Humidity;BMP_temperature;BMP_pressure;BME280_temperature;BME280_humidity;BME280_pressure;Samples;Min_cycle;Max_cycle;Signal;HPM_P1;HPM_P2
2022/07/12 00:01:06;;;;;;;5.07;1.00;;;;;;;14.39;46.76;94374.00;5004747;28;20065;-80
2022/07/12 00:03:32;;;;;;;3.30;1.00;;;;;;;14.40;46.59;94386.31;5004959;28;20061;-79
2022/07/12 00:05:59;;;;;;;1.42;0.82;;;;;;;14.36;46.85;94388.06;5004977;28;20090;-80
2022/07/12 00:08:24;;;;;;;2.65;0.90;;;;;;;14.34;46.65;94382.25;5004801;28;20041;-80
2022/07/12 00:10:50;;;;;;;3.60;1.17;;;;;;;14.32;46.63;94389.81;5004495;28;20085;-79
2022/07/12 00:13:15;;;;;;;1.50;0.80;;;;;;;14.33;47.14;94384.16;5004700;28;20045;-79
2022/07/12 00:15:42;;;;;;;4.28;1.15;;;;;;;14.28;47.02;94386.22;5004809;28;20057;-80
2022/07/12 00:18:08;;;;;;;6.80;1.10;;;;;;;14.26;47.17;94378.50;5004207;28;20021;-79
2022/07/12 00:20:33;;;;;;;4.20;0.90;;;;;;;14.20;47.24;94375.19;5003841;28;20022;-79
2022/07/12 00:22:59;;;;;;;3.80;0.95;;;;;;;14.15;47.32;94383.44;5004563;28;20030;-80
2022/07/12 00:25:25;;;;;;;3.75;1.23;;;;;;;14.10;47.33;94382.81;5004426;28;20094;-80
2022/07/12 00:27:51;;;;;;;6.47;1.00;;;;;;;14.08;47.25;94388.50;5004291;28;20037;-79
2022/07/12 00:30:17;;;;;;;3.20;1.15;;;;;;;14.14;47.21;94387.22;5004555;28;20089;-77
2022/07/12 00:32:43;;;;;;;6.32;1.27;;;;;;;14.15;47.32;94388.81;5004450;28;20042;-77
2022/07/12 00:35:08;;;;;;;3.25;1.02;;;;;;;14.08;47.01;94379.69;5003019;28;20030;-77
2022/07/12 00:37:34;;;;;;;2.00;0.90;;;;;;;14.14;47.50;94378.38;5004262;28;20029;-77
2022/07/12 00:39:59;;;;;;;2.75;1.00;;;;;;;14.17;47.34;94386.59;5003984;28;20052;-78
2022/07/12 00:42:26;;;;;;;2.35;1.00;;;;;;;14.11;47.26;94384.41;5004033;28;20042;-77
2022/07/12 00:44:52;;;;;;;5.13;1.05;;;;;;;14.16;47.58;94371.59;5003904;28;20026;-77
2022/07/12 00:47:40;;;;;;;6.45;1.00;;;;;;;14.08;47.28;94374.31;5004093;28;20030;-77
2022/07/12 00:50:11;;;;;;;2.85;0.90;;;;;;;14.08;47.58;94380.47;5003960;28;20395;-78
2022/07/12 00:52:38;;;;;;;4.17;1.07;;;;;;;14.10;47.70;94377.47;5004028;28;20060;-78
2022/07/12 00:55:08;;;;;;;4.75;0.98;;;;;;;14.13;47.91;94369.56;5003965;28;20308;-78
2022/07/12 00:57:34;;;;;;;1.55;0.93;;;;;;;14.11;48.20;94373.69;5003853;28;20022;-78
2022/07/12 01:00:00;;;;;;;2.72;1.25;;;;;;;14.11;47.64;94368.31;5003860;28;20022;-78
2022/07/12 01:02:26;;;;;;;2.95;0.88;;;;;;;14.07;47.75;94370.84;5003849;28;20237;-77
2022/07/12 01:04:54;;;;;;;6.00;1.40;;;;;;;14.05;47.80;94381.13;5003731;28;20022;-77
2022/07/12 01:07:20;;;;;;;3.95;1.42;;;;;;;14.03;47.74;94373.38;5003759;28;20026;-76
2022/07/12 01:09:45;;;;;;;2.28;1.42;;;;;;;14.04;48.08;94369.63;5003815;28;20029;-77
2022/07/12 01:12:11;;;;;;;2.45;1.00;;;;;;;14.07;47.77;94362.03;5003649;28;20081;-76
2022/07/12 01:14:39;;;;;;;2.63;1.10;;;;;;;13.98;48.56;94370.91;5003667;28;20332;-77
2022/07/12 01:17:06;;;;;;;4.43;1.00;;;;;;;13.99;48.27;94364.41;5003707;28;20026;-76
2022/07/12 01:19:32;;;;;;;4.85;1.17;;;;;;;13.99;48.54;94372.47;5003634;28;20050;-76
2022/07/12 01:22:01;;;;;;;4.72;2.38;;;;;;;14.00;48.16;94374.03;5003609;28;20030;-77
2022/07/12 01:24:26;;;;;;;8.23;1.30;;;;;;;14.01;48.59;94380.19;5003450;28;20029;-77
2022/07/12 01:26:53;;;;;;;2.95;1.50;;;;;;;14.01;49.17;94374.81;5003431;28;20027;-76
2022/07/12 01:29:19;;;;;;;6.90;1.15;;;;;;;14.02;48.80;94374.50;5003437;28;20058;-77
2022/07/12 01:31:45;;;;;;;5.32;1.48;;;;;;;14.03;49.40;94377.97;5003448;28;20018;-77
2022/07/12 01:34:11;;;;;;;2.55;1.27;;;;;;;13.97;48.49;94363.19;5003508;28;20215;-77
2022/07/12 01:36:38;;;;;;;6.53;1.42;;;;;;;13.98;48.59;94370.91;5003353;28;20049;-76
2022/07/12 01:39:04;;;;;;;8.10;1.33;;;;;;;14.01;48.65;94367.56;5003390;28;20030;-77
2022/07/12 01:41:31;;;;;;;3.88;1.52;;;;;;;14.03;48.35;94372.63;5003223;28;20077;-77
2022/07/12 01:43:57;;;;;;;4.45;1.55;;;;;;;13.98;48.72;94370.91;5003252;28;20022;-76
2022/07/12 01:46:22;;;;;;;4.45;1.27;;;;;;;13.98;49.04;94370.91;5003382;28;20037;-77
2022/07/12 01:48:48;;;;;;;5.70;1.35;;;;;;;13.96;48.87;94366.94;5003243;28;20026;-77
2022/07/12 01:51:14;;;;;;;3.90;1.42;;;;;;;13.99;48.91;94360.97;5003414;28;20038;-77
2022/07/12 01:53:39;;;;;;;7.03;1.77;;;;;;;13.99;49.24;94372.47;5003163;28;20041;-78
2022/07/12 01:56:05;;;;;;;5.20;1.30;;;;;;;13.97;48.83;94368.53;5003405;28;20037;-78
2022/07/12 01:58:31;;;;;;;3.63;1.23;;;;;;;13.94;48.50;94363.81;5003327;28;20228;-78
2022/07/12 02:00:57;;;;;;;2.67;1.05;;;;;;;13.90;49.52;94361.00;5003083;28;20026;-77
2022/07/12 02:03:23;;;;;;;10.23;1.20;;;;;;;13.94;49.09;94363.81;5003104;28;20027;-78
2022/07/12 02:05:48;;;;;;;3.53;1.02;;;;;;;13.97;48.79;94365.84;5003250;28;20049;-77
2022/07/12 02:08:14;;;;;;;4.28;1.30;;;;;;;13.94;49.09;94363.81;5003340;28;20022;-77
2022/07/12 02:10:41;;;;;;;7.82;1.77;;;;;;;13.97;48.81;94368.53;5003127;28;20022;-80
2022/07/12 02:13:06;;;;;;;3.38;1.08;;;;;;;13.98;49.19;94364.72;5003175;28;20042;-80
2022/07/12 02:15:32;;;;;;;4.82;1.35;;;;;;;13.94;49.42;94361.13;5003077;28;20097;-80
2022/07/12 02:17:57;;;;;;;3.88;1.42;;;;;;;13.99;50.49;94360.97;5001724;28;20026;-80
2022/07/12 02:20:23;;;;;;;7.47;1.73;;;;;;;14.04;51.42;94374.16;5003075;28;20073;-80
2022/07/12 02:22:49;;;;;;;3.72;1.50;;;;;;;14.04;51.79;94380.34;5003068;28;20033;-80
2022/07/12 02:25:14;;;;;;;4.28;1.60;;;;;;;13.95;52.65;94368.84;5003000;28;20022;-80
2022/07/12 02:27:42;;;;;;;7.18;1.35;;;;;;;13.93;53.54;94371.06;5002888;28;20030;-80
2022/07/12 02:30:09;;;;;;;2.28;1.45;;;;;;;13.89;53.48;94372.81;5003116;28;20034;-82
2022/07/12 02:32:35;;;;;;;6.28;1.83;;;;;;;13.88;53.79;94370.44;5002999;28;20022;-80
2022/07/12 02:35:00;;;;;;;3.67;1.98;;;;;;;13.87;54.65;94380.38;5002683;28;20026;-80
2022/07/12 02:37:26;;;;;;;4.13;1.70;;;;;;;13.81;54.76;94371.72;5003042;28;20022;-80
2022/07/12 02:39:51;;;;;;;5.82;1.98;;;;;;;13.76;54.91;94369.25;5002873;28;20018;-80
2022/07/12 02:42:17;;;;;;;7.00;2.40;;;;;;;13.73;55.07;94369.09;5003343;28;20046;-80
2022/07/12 02:44:42;;;;;;;3.95;2.33;;;;;;;13.66;55.62;94374.94;5006502;28;20018;-78
2022/07/12 02:47:08;;;;;;;5.43;2.00;;;;;;;13.63;55.17;94372.91;5006316;28;20025;-79
2022/07/12 02:49:34;;;;;;;7.05;2.03;;;;;;;13.59;55.65;94366.59;5006231;28;20022;-79
2022/07/12 02:51:59;;;;;;;4.10;1.45;;;;;;;13.53;56.38;94362.53;5006126;28;20072;-79
2022/07/12 02:54:25;;;;;;;4.32;1.80;;;;;;;13.46;56.64;94370.28;5006218;28;20033;-79
2022/07/12 02:56:50;;;;;;;3.65;1.75;;;;;;;13.42;57.01;94370.13;5006041;28;20030;-79
2022/07/12 02:59:15;;;;;;;4.18;2.30;;;;;;;13.33;57.20;94372.81;5005945;28;20032;-79
2022/07/12 03:01:41;;;;;;;7.88;2.40;;;;;;;13.26;57.43;94375.13;5006099;28;20050;-79
2022/07/12 03:04:06;;;;;;;11.93;2.22;;;;;;;13.23;57.21;94384.59;5006144;28;20093;-79
2022/07/12 03:06:32;;;;;;;7.30;2.03;;;;;;;13.19;58.32;94389.00;5005976;28;20030;-78
2022/07/12 03:08:57;;;;;;;6.55;2.08;;;;;;;13.16;58.58;94384.28;5005882;28;20092;-77
2022/07/12 03:11:23;;;;;;;5.88;2.00;;;;;;;13.13;59.03;94387.59;5005984;28;20026;-77
2022/07/12 03:13:48;;;;;;;6.43;2.58;;;;;;;13.09;58.52;94383.97;5005784;28;20045;-77
2022/07/12 03:16:14;;;;;;;8.82;2.17;;;;;;;13.09;58.70;94385.84;5005867;28;20026;-78
2022/07/12 03:18:40;;;;;;;3.45;1.85;;;;;;;13.09;59.19;94388.53;5005891;28;20060;-78
2022/07/12 03:21:06;;;;;;;5.38;2.17;;;;;;;13.08;59.66;94401.13;5005689;28;20030;-77
2022/07/12 03:23:32;;;;;;;3.92;2.30;;;;;;;13.10;58.93;94398.13;5005639;28;20201;-78
2022/07/12 03:25:57;;;;;;;4.68;2.17;;;;;;;13.09;58.56;94394.69;5005485;28;20037;-78
2022/07/12 03:28:23;;;;;;;6.93;2.42;;;;;;;13.11;59.25;94400.50;5005681;28;20029;-78
2022/07/12 03:30:48;;;;;;;6.18;2.97;;;;;;;13.14;59.57;94401.75;5005422;28;20045;-78
2022/07/12 03:33:13;;;;;;;6.55;2.67;;;;;;;13.14;59.38;94407.13;5005533;28;20022;-79
2022/07/12 03:35:39;;;;;;;5.53;2.25;;;;;;;13.14;57.78;94399.09;5005618;28;20231;-79
2022/07/12 03:38:04;;;;;;;3.20;2.28;;;;;;;13.17;57.21;94409.19;5005376;28;20089;-79
2022/07/12 03:40:31;;;;;;;4.40;2.33;;;;;;;13.19;57.21;94404.28;5005103;28;20150;-79
2022/07/12 03:42:58;;;;;;;9.18;2.80;;;;;;;13.20;57.30;94395.16;5005302;28;20077;-78
2022/07/12 03:45:24;;;;;;;9.88;3.50;;;;;;;13.23;58.73;94410.59;5005261;28;20029;-79
2022/07/12 03:47:49;;;;;;;7.47;3.03;;;;;;;13.24;58.70;94410.25;5005213;28;20022;-79
2022/07/12 03:50:15;;;;;;;6.72;2.28;;;;;;;13.28;57.25;94402.38;5005118;28;20089;-79
2022/07/12 03:52:42;;;;;;;4.68;2.35;;;;;;;13.32;58.34;94408.72;5005158;28;20018;-79
2022/07/12 03:55:09;;;;;;;5.65;2.33;;;;;;;13.34;58.33;94406.50;5005039;28;20316;-79
2022/07/12 03:57:34;;;;;;;4.10;2.70;;;;;;;13.37;58.58;94416.59;5005002;28;20335;-79
2022/07/12 04:00:00;;;;;;;6.78;2.38;;;;;;;13.38;58.39;94407.44;5005005;28;20022;-79
2022/07/12 04:02:25;;;;;;;10.77;2.55;;;;;;;13.41;58.10;94401.47;5004812;28;20022;-80
2022/07/12 04:04:51;;;;;;;9.90;2.97;;;;;;;13.47;59.31;94404.75;5004806;28;20030;-79
2022/07/12 04:07:17;;;;;;;8.98;2.92;;;;;;;13.41;58.14;94412.19;5004719;28;20105;-78
2022/07/12 04:09:42;;;;;;;8.35;2.65;;;;;;;13.44;58.24;94419.56;5004957;28;20037;-79
2022/07/12 04:12:08;;;;;;;9.18;3.50;;;;;;;13.47;57.34;94412.00;5004675;28;20056;-78
2022/07/12 04:14:34;;;;;;;9.05;2.50;;;;;;;13.50;56.78;94420.19;5004668;28;20045;-78
2022/07/12 04:16:59;;;;;;;5.15;2.78;;;;;;;13.51;56.22;94411.03;5004746;28;20252;-78
2022/07/12 04:19:27;;;;;;;6.18;2.40;;;;;;;13.58;56.37;94432.00;5004616;28;20351;-78
2022/07/12 04:21:56;;;;;;;8.77;2.97;;;;;;;13.63;56.73;94434.50;5004404;28;20094;-78
2022/07/12 04:24:22;;;;;;;6.10;2.28;;;;;;;13.68;56.24;94437.03;5004261;28;20073;-78
2022/07/12 04:26:48;;;;;;;12.52;2.75;;;;;;;13.69;55.58;94429.75;5004509;28;20046;-79
2022/07/12 04:29:15;;;;;;;7.93;2.03;;;;;;;13.74;55.36;94437.63;5004574;28;20292;-79
2022/07/12 04:31:40;;;;;;;7.85;2.75;;;;;;;13.74;55.11;94434.94;5004263;28;20220;-78
2022/07/12 04:34:05;;;;;;;6.65;2.78;;;;;;;13.73;54.44;94438.75;5004118;28;20058;-78
2022/07/12 04:36:32;;;;;;;8.95;2.63;;;;;;;13.72;54.97;94435.28;5003990;28;20037;-79
2022/07/12 04:38:58;;;;;;;9.20;2.63;;;;;;;13.76;54.56;94438.09;5004240;28;20056;-78
2022/07/12 04:41:23;;;;;;;10.48;2.13;;;;;;;13.79;54.41;94448.97;5003858;28;20045;-78
2022/07/12 04:43:48;;;;;;;4.32;2.13;;;;;;;13.81;54.56;94446.75;5004026;28;20030;-78
2022/07/12 04:46:14;;;;;;;10.45;3.08;;;;;;;13.79;55.19;94442.81;5004130;28;20193;-78
2022/07/12 04:48:39;;;;;;;9.75;2.88;;;;;;;13.77;55.47;94445.81;5003930;28;20315;-78
2022/07/12 04:51:05;;;;;;;5.55;2.80;;;;;;;13.67;55.47;94446.16;5004032;28;20025;-79
2022/07/12 04:53:30;;;;;;;5.47;3.35;;;;;;;13.56;56.36;94439.56;5004009;28;20093;-80
2022/07/12 04:55:56;;;;;;;22.42;2.95;;;;;;;13.61;55.79;94453.56;5003781;28;20023;-78
2022/07/12 04:58:23;;;;;;;10.65;3.15;;;;;;;13.63;56.05;94455.94;5003746;28;20033;-79
2022/07/12 05:00:48;;;;;;;6.60;2.90;;;;;;;13.64;58.91;94457.50;5003465;28;20268;-72
2022/07/12 05:03:14;;;;;;;16.00;3.17;;;;;;;13.70;57.59;94444.72;5003644;28;20026;-72
2022/07/12 05:05:40;;;;;;;8.70;3.33;;;;;;;13.76;57.51;94454.16;5002960;28;20053;-71
2022/07/12 05:08:05;;;;;;;8.43;3.03;;;;;;;13.77;57.15;94451.19;5003210;28;20022;-71
2022/07/12 05:10:30;;;;;;;9.27;3.38;;;;;;;13.90;56.83;94453.97;5002881;28;20026;-73
2022/07/12 05:12:56;;;;;;;8.30;3.45;;;;;;;13.91;56.18;94445.63;5003182;28;20220;-72
2022/07/12 05:15:22;;;;;;;11.13;3.42;;;;;;;13.91;56.35;94444.84;5003160;28;20035;-74
2022/07/12 05:17:47;;;;;;;20.63;3.50;;;;;;;14.02;55.78;94448.75;5003087;28;20093;-74
2022/07/12 05:20:13;;;;;;;9.18;3.17;;;;;;;14.02;56.12;94454.09;5003163;28;20034;-71
2022/07/12 05:22:41;;;;;;;12.45;3.15;;;;;;;14.17;56.47;94442.88;5002837;28;20041;-73
2022/07/12 05:25:06;;;;;;;14.63;3.58;;;;;;;14.23;56.09;94454.22;5003090;28;20409;-72
2022/07/12 05:27:32;;;;;;;7.03;3.17;;;;;;;14.33;56.25;94458.41;5002737;28;20026;-72
2022/07/12 05:29:57;;;;;;;10.93;3.65;;;;;;;14.40;55.52;94456.03;5002901;28;20025;-72
2022/07/12 05:32:23;;;;;;;14.75;3.95;;;;;;;14.48;54.40;94455.22;5002914;28;20042;-72
2022/07/12 05:34:49;;;;;;;12.20;3.63;;;;;;;14.54;55.56;94458.50;5002938;28;20022;-74
2022/07/12 05:37:14;;;;;;;13.73;3.53;;;;;;;14.62;55.27;94458.47;5003208;28;20018;-74
2022/07/12 05:39:40;;;;;;;10.93;3.38;;;;;;;14.64;53.72;94455.47;5003119;28;20029;-73
2022/07/12 05:42:05;;;;;;;12.80;3.67;;;;;;;14.72;54.32;94451.97;5002577;28;20328;-73
2022/07/12 05:44:31;;;;;;;13.88;3.50;;;;;;;14.84;53.23;94451.28;5002955;28;20022;-73
2022/07/12 05:46:56;;;;;;;7.57;3.65;;;;;;;14.90;53.25;94451.84;5003276;28;20044;-74
2022/07/12 05:49:21;;;;;;;9.80;3.45;;;;;;;15.00;53.45;94446.91;5002864;28;20018;-74
2022/07/12 05:54:32;;;;;;;20.25;3.55;;;;;;;15.39;52.62;94447.56;5003279;28;20073;-75
2022/07/12 05:56:58;;;;;;;12.13;3.42;;;;;;;15.52;51.72;94450.31;5003233;28;20038;-76
2022/07/12 05:59:23;;;;;;;20.30;3.58;;;;;;;15.61;51.55;94446.44;5002972;28;20264;-76
2022/07/12 06:01:49;;;;;;;15.50;3.83;;;;;;;15.78;51.93;94447.41;5002880;28;20030;-76
2022/07/12 06:04:14;;;;;;;14.30;3.20;;;;;;;15.98;52.29;94445.78;5003161;28;20097;-76
2022/07/12 06:06:40;;;;;;;9.85;3.25;;;;;;;16.06;50.23;94450.28;5003051;28;20113;-77
2022/07/12 06:09:05;;;;;;;8.52;3.20;;;;;;;16.14;50.52;94448.59;5002846;28;20023;-76
2022/07/12 06:11:32;;;;;;;12.60;3.92;;;;;;;16.19;50.78;94454.56;5002713;28;20030;-77
2022/07/12 06:13:58;;;;;;;7.55;2.90;;;;;;;16.28;51.68;94448.28;5002925;28;20030;-80
2022/07/12 06:16:23;;;;;;;3.92;1.50;;;;;;;16.37;46.20;94435.53;5003118;28;20277;-79
2022/07/12 06:18:49;;;;;;;9.68;1.50;;;;;;;16.44;45.71;94441.94;5005681;28;20037;-79
2022/07/12 06:21:14;;;;;;;5.38;1.27;;;;;;;16.49;44.09;94446.31;5006445;28;20034;-79
2022/07/12 06:23:55;;;;;;;2.38;1.15;;;;;;;16.46;44.84;94441.56;5005387;28;20159;-79
2022/07/12 06:26:20;;;;;;;6.57;1.27;;;;;;;16.45;44.96;94442.72;5005248;28;20375;-79
2022/07/12 06:28:46;;;;;;;3.17;1.30;;;;;;;16.43;47.83;94439.56;5006776;28;20089;-79
2022/07/12 06:31:12;;;;;;;6.82;1.98;;;;;;;16.48;45.64;94441.25;5006719;28;20198;-79
2022/07/12 06:33:37;;;;;;;6.15;1.55;;;;;;;16.60;45.71;94439.34;5006371;28;20096;-78
2022/07/12 06:36:03;;;;;;;24.55;1.75;;;;;;;16.71;43.69;94444.28;5006308;28;20267;-80
2022/07/12 06:38:28;;;;;;;7.93;1.40;;;;;;;16.69;43.83;94439.25;5006292;28;20026;-80
2022/07/12 06:40:54;;;;;;;6.63;1.40;;;;;;;16.73;44.17;94437.44;5006125;28;20046;-80
2022/07/12 06:43:19;;;;;;;1.63;0.88;;;;;;;16.78;43.86;94444.50;5006475;28;20026;-80
2022/07/12 06:45:45;;;;;;;6.82;1.30;;;;;;;16.79;46.11;94440.66;5006485;28;20076;-80
2022/07/12 06:48:10;;;;;;;2.63;1.10;;;;;;;16.81;44.31;94436.56;5006178;28;20097;-79
2022/07/12 06:50:35;;;;;;;3.03;1.00;;;;;;;16.80;45.42;94426.88;5006140;28;20037;-80
2022/07/12 06:53:01;;;;;;;2.33;0.98;;;;;;;16.85;45.69;94431.28;5005975;28;20265;-80
2022/07/12 06:55:27;;;;;;;10.40;1.63;;;;;;;16.96;44.57;94432.41;5005974;28;20098;-80
2022/07/12 06:57:52;;;;;;;9.73;1.33;;;;;;;17.02;43.29;94439.13;5006024;28;20050;-75
2022/07/12 07:00:18;;;;;;;3.35;1.27;;;;;;;17.06;43.66;94439.22;5005989;28;20093;-76
2022/07/12 07:02:43;;;;;;;4.15;1.17;;;;;;;17.06;43.06;94436.53;5005914;28;20045;-76
2022/07/12 07:05:10;;;;;;;13.43;1.67;;;;;;;17.04;43.81;94431.47;5005920;28;20022;-76
2022/07/12 07:07:36;;;;;;;5.35;1.42;;;;;;;17.07;43.54;94435.41;5006065;28;20037;-76
2022/07/12 07:10:01;;;;;;;6.75;1.50;;;;;;;17.13;43.48;94438.66;5005775;28;20022;-76
2022/07/12 07:12:27;;;;;;;6.95;1.50;;;;;;;17.19;44.02;94429.19;5004541;28;20030;-76
2022/07/12 07:14:52;;;;;;;7.25;1.42;;;;;;;17.26;44.48;94440.19;5004677;28;20065;-73
2022/07/12 07:17:19;;;;;;;5.95;1.75;;;;;;;17.32;43.80;94436.13;5005681;28;20029;-73
2022/07/12 07:19:47;;;;;;;3.63;1.30;;;;;;;17.39;42.05;94432.84;5005792;28;20084;-76
2022/07/12 07:22:13;;;;;;;7.07;1.42;;;;;;;17.43;43.51;94436.44;5005542;28;20022;-76
2022/07/12 07:24:39;;;;;;;12.85;1.60;;;;;;;17.45;43.67;94434.97;5005650;28;20097;-76
2022/07/12 07:27:05;;;;;;;4.35;1.30;;;;;;;17.43;43.89;94442.59;5005460;28;20331;-76
2022/07/12 07:32:19;;;;;;;8.60;1.42;;;;;;;17.55;44.27;94435.63;4995460;28;20042;-77
2022/07/12 07:34:45;;;;;;;9.30;1.27;;;;;;;17.54;41.79;94431.34;5005556;28;20037;-77
2022/07/12 07:37:10;;;;;;;4.28;1.42;;;;;;;17.64;41.74;94438.94;5005492;28;20026;-77
2022/07/12 07:39:36;;;;;;;5.25;1.38;;;;;;;17.65;41.41;94433.19;5005392;28;20193;-78
2022/07/12 07:42:02;;;;;;;11.60;1.55;;;;;;;17.73;39.65;94426.09;5004863;28;20061;-78
2022/07/12 07:44:27;;;;;;;10.45;2.28;;;;;;;17.80;39.51;94434.38;5005024;28;20030;-79
2022/07/12 07:46:53;;;;;;;5.90;1.40;;;;;;;17.81;40.73;94441.34;5005186;28;20022;-77
2022/07/12 07:49:18;;;;;;;6.28;1.52;;;;;;;17.76;41.03;94433.47;5004993;28;20080;-77
2022/07/12 07:51:44;;;;;;;5.43;1.45;;;;;;;17.87;39.37;94423.03;5005058;28;20270;-78
2022/07/12 07:54:09;;;;;;;5.35;1.02;;;;;;;17.97;40.56;94427.13;5004967;28;20322;-78
2022/07/12 07:56:34;;;;;;;2.80;0.93;;;;;;;18.10;40.57;94425.94;5005005;28;20065;-77
2022/07/12 07:59:00;;;;;;;6.53;0.73;;;;;;;18.31;39.36;94431.06;5004790;28;20324;-79
2022/07/12 08:01:42;;;;;;;5.40;0.90;;;;;;;18.40;36.22;94423.59;5004562;28;20026;-78
2022/07/12 08:04:11;;;;;;;4.10;1.10;;;;;;;18.37;36.44;94424.28;5004841;28;20205;-78
2022/07/12 08:06:36;;;;;;;7.63;0.90;;;;;;;18.36;37.73;94427.31;5004330;28;20037;-78
2022/07/12 08:09:02;;;;;;;4.85;1.00;;;;;;;18.35;36.47;94433.84;5004726;28;20050;-78
2022/07/12 08:11:28;;;;;;;3.25;0.85;;;;;;;18.39;36.29;94413.91;5004610;28;20033;-77
2022/07/12 08:13:53;;;;;;;4.22;1.70;;;;;;;18.44;37.17;94423.69;5004600;28;20053;-78
2022/07/12 08:16:19;;;;;;;2.20;0.98;;;;;;;18.56;35.69;94420.88;5004298;28;20049;-78
2022/07/12 08:18:44;;;;;;;4.70;1.08;;;;;;;18.63;36.46;94414.88;5004467;28;20093;-78
2022/07/12 08:21:10;;;;;;;3.60;1.00;;;;;;;18.72;35.74;94422.78;5004233;28;20042;-78
2022/07/12 08:23:35;;;;;;;4.53;1.30;;;;;;;18.82;34.57;94422.25;5004256;28;20098;-77
2022/07/12 08:26:00;;;;;;;6.82;1.10;;;;;;;18.87;37.16;94421.19;5004133;28;20028;-78
2022/07/12 08:28:26;;;;;;;6.75;1.08;;;;;;;18.95;37.80;94409.41;5004259;28;20126;-79
2022/07/12 08:30:51;;;;;;;4.90;0.98;;;;;;;19.00;37.54;94417.25;5004039;28;20097;-79
2022/07/12 08:33:17;;;;;;;6.53;1.00;;;;;;;18.98;34.04;94417.59;5004038;28;20042;-77
2022/07/12 08:35:43;;;;;;;16.23;2.83;;;;;;;18.94;33.36;94408.66;5004343;28;20045;-76
2022/07/12 08:38:10;;;;;;;11.10;1.52;;;;;;;18.72;36.09;94411.97;5004150;28;20085;-77
2022/07/12 08:40:36;;;;;;;1.85;0.68;;;;;;;18.69;36.78;94418.09;5002905;28;20040;-78
2022/07/12 08:43:01;;;;;;;3.50;0.70;;;;;;;18.69;37.37;94410.00;5002825;28;20284;-78
2022/07/12 08:45:27;;;;;;;3.08;0.95;;;;;;;18.73;35.68;94397.34;5004057;28;20018;-78
2022/07/12 08:47:52;;;;;;;7.75;1.35;;;;;;;18.84;34.80;94393.00;5003902;28;20026;-79
2022/07/12 08:50:20;;;;;;;6.32;1.17;;;;;;;18.97;33.22;94397.16;5003792;28;20093;-77
2022/07/12 08:52:54;;;;;;;3.50;0.85;;;;;;;19.01;33.72;94395.31;5003839;28;20027;-77
2022/07/12 08:55:29;;;;;;;7.72;1.08;;;;;;;19.00;34.60;94396.44;5003561;28;20033;-79
2022/07/12 08:57:59;;;;;;;4.32;0.98;;;;;;;19.13;35.08;94397.09;5003552;28;20018;-77
2022/07/12 09:00:26;;;;;;;11.20;1.00;;;;;;;19.22;35.05;94391.47;5003820;28;20022;-78
2022/07/12 09:02:57;;;;;;;5.32;0.93;;;;;;;19.35;34.72;94392.13;5003342;28;20022;-77
2022/07/12 09:05:31;;;;;;;3.45;0.80;;;;;;;19.37;35.96;94387.91;5003654;28;20035;-77
2022/07/12 09:08:07;;;;;;;8.25;0.93;;;;;;;19.39;35.13;94391.03;5003505;28;20026;-78
2022/07/12 09:10:48;;;;;;;5.70;0.98;;;;;;;19.24;33.40;94383.81;5003514;28;20019;-78
2022/07/12 09:13:14;;;;;;;1.83;0.68;;;;;;;19.15;31.95;94391.31;5003610;28;20018;-77
2022/07/12 09:15:40;;;;;;;9.00;1.58;;;;;;;19.11;32.47;94390.47;5003582;28;20060;-77
2022/07/12 09:18:13;;;;;;;3.00;0.77;;;;;;;19.14;32.34;94389.78;5003449;28;20036;-79
2022/07/12 09:20:40;;;;;;;1.58;0.63;;;;;;;19.19;32.59;94378.66;5003173;28;20260;-77
2022/07/12 09:23:08;;;;;;;3.33;1.05;;;;;;;19.27;33.03;94387.72;5003235;28;20105;-78
2022/07/12 09:25:34;;;;;;;7.90;0.93;;;;;;;19.23;33.27;94387.63;5003424;28;20022;-78
2022/07/12 09:28:04;;;;;;;12.63;1.48;;;;;;;19.22;34.58;94388.78;5003196;28;20113;-78
2022/07/12 09:30:30;;;;;;;6.47;0.85;;;;;;;19.17;34.03;94383.66;5002971;28;20342;-77
2022/07/12 09:36:06;;;;;;;7.10;0.80;;;;;;;19.30;33.24;94392.41;5003203;28;20076;-74
2022/07/12 09:38:39;;;;;;;4.85;0.90;;;;;;;19.27;31.84;94383.09;5002970;28;20022;-76
2022/07/12 09:41:05;;;;;;;;;;;;;;;19.22;31.17;94383.38;5003020;28;20073;-75
2022/07/12 09:43:31;;;;;;;2.70;0.80;;;;;;;19.23;32.30;94371.41;5002628;28;20104;-76
2022/07/12 09:45:56;;;;;;;2.28;0.90;;;;;;;19.35;35.34;94387.50;5001841;28;20124;-76
2022/07/12 09:48:22;;;;;;;5.13;1.00;;;;;;;19.48;33.20;94377.34;5002852;28;20026;-76
2022/07/12 09:50:51;;;;;;;2.70;0.80;;;;;;;19.52;32.53;94380.09;5002843;28;20064;-77
2022/07/12 09:53:44;;;;;;;5.90;1.15;;;;;;;19.45;31.52;94378.81;5007032;28;20045;-77
2022/07/12 09:56:12;;;;;;;3.83;0.88;;;;;;;19.45;33.95;94395.03;5006373;28;20034;-76
2022/07/12 09:58:57;;;;;;;4.30;0.93;;;;;;;19.39;33.30;94384.88;5006828;28;20045;-76
2022/07/12 10:01:24;;;;;;;3.35;0.88;;;;;;;19.45;34.79;94373.41;5006702;28;20354;-77
2022/07/12 10:03:50;;;;;;;4.30;1.30;;;;;;;19.49;31.25;94383.53;5006665;28;20332;-77
2022/07/12 10:06:24;;;;;;;5.55;0.75;;;;;;;19.45;31.52;94378.81;5006840;28;20072;-77
2022/07/12 10:08:51;;;;;;;5.05;0.85;;;;;;;19.48;33.14;94377.34;5006664;28;20045;-77
2022/07/12 10:11:17;;;;;;;3.10;0.93;;;;;;;19.50;33.86;94374.25;5006893;28;20219;-77
2022/07/12 10:13:43;;;;;;;14.93;1.20;;;;;;;19.62;30.09;94374.09;5006707;28;20247;-77
2022/07/12 10:16:10;;;;;;;5.15;0.80;;;;;;;19.64;29.81;94369.13;5006594;28;20034;-77
2022/07/12 10:18:36;;;;;;;4.35;0.68;;;;;;;19.68;30.21;94374.59;5006641;28;20026;-78
2022/07/12 10:21:18;;;;;;;7.40;1.08;;;;;;;19.76;29.80;94368.22;5006413;28;20026;-77
2022/07/12 10:23:44;;;;;;;2.72;0.93;;;;;;;19.84;30.90;94383.41;5006438;28;20018;-76
2022/07/12 10:26:16;;;;;;;3.30;0.63;;;;;;;19.98;31.20;94362.03;5006418;28;20037;-76
2022/07/12 10:29:01;;;;;;;8.52;0.57;;;;;;;20.10;31.28;94363.00;5006187;28;20034;-77
2022/07/12 10:31:39;;;;;;;3.40;1.27;;;;;;;20.24;31.64;94371.38;5006508;28;20018;-77
2022/07/12 10:34:13;;;;;;;7.13;2.70;;;;;;;20.11;28.50;94370.78;5006393;28;20018;-77
2022/07/12 10:36:54;;;;;;;3.03;1.08;;;;;;;19.88;27.22;94353.75;5006369;28;20231;-76
2022/07/12 10:39:22;;;;;;;6.82;1.30;;;;;;;19.86;28.94;94347.91;5005016;28;20041;-76
2022/07/12 10:42:06;;;;;;;10.40;1.77;;;;;;;19.99;29.47;94352.00;5005986;28;20057;-77
2022/07/12 10:44:36;;;;;;;3.08;1.08;;;;;;;20.14;29.24;94358.44;5005933;28;20053;-77
2022/07/12 10:47:03;;;;;;;3.85;1.05;;;;;;;20.12;29.55;94350.66;5005971;28;20240;-76
2022/07/12 10:49:30;;;;;;;6.57;1.40;;;;;;;20.14;30.12;94342.19;5006198;28;20069;-76
2022/07/12 10:52:11;;;;;;;4.00;1.40;;;;;;;20.17;29.76;94353.09;5004542;28;20026;-77
2022/07/12 10:54:38;;;;;;;9.32;1.70;;;;;;;20.19;30.66;94350.81;5005803;28;20022;-76
2022/07/12 10:57:03;;;;;;;6.22;1.30;;;;;;;20.06;28.69;94365.66;5005738;28;20054;-76
2022/07/12 10:59:30;;;;;;;8.52;1.38;;;;;;;20.10;29.37;94342.13;5005711;28;20308;-75
2022/07/12 11:01:56;;;;;;;4.53;1.83;;;;;;;20.15;29.82;94349.97;5005489;28;20260;-77
2022/07/12 11:04:22;;;;;;;14.98;1.30;;;;;;;20.17;29.52;94358.50;5004693;28;20026;-77
2022/07/12 11:06:49;;;;;;;2.03;0.65;;;;;;;20.11;28.38;94356.44;5005709;28;20105;-76
2022/07/12 11:09:17;;;;;;;2.92;1.20;;;;;;;20.07;27.86;94358.31;5005630;28;20022;-76
2022/07/12 11:11:45;;;;;;;7.07;1.27;;;;;;;20.03;28.85;94361.75;5005499;28;20069;-76
2022/07/12 11:14:11;;;;;;;2.50;0.50;;;;;;;19.95;30.64;94345.75;5005499;28;20030;-78
2022/07/12 11:16:45;;;;;;;2.15;0.80;;;;;;;20.11;31.78;94362.66;5005249;28;20034;-78
2022/07/12 11:19:10;;;;;;;4.45;0.73;;;;;;;20.33;30.75;94344.03;5005382;28;20026;-76
2022/07/12 11:21:36;;;;;;;0.82;0.47;;;;;;;20.44;30.39;94359.31;5005288;28;20030;-78
2022/07/12 11:24:02;;;;;;;4.28;0.50;;;;;;;20.59;29.74;94363.03;5005154;28;20037;-77
2022/07/12 11:26:27;;;;;;;0.70;0.50;;;;;;;20.72;30.59;94368.25;5005155;28;20224;-78
2022/07/12 11:28:57;;;;;;;3.55;0.88;;;;;;;20.71;29.77;94345.03;5005072;28;20097;-79
2022/07/12 11:31:25;;;;;;;3.03;0.88;;;;;;;20.73;30.09;94340.78;5005422;28;20120;-78
2022/07/12 11:33:53;;;;;;;2.47;0.80;;;;;;;20.80;32.30;94345.53;5004053;28;20030;-77
2022/07/12 11:36:19;;;;;;;2.95;0.75;;;;;;;20.79;31.15;94349.41;5005083;28;20022;-78
2022/07/12 11:38:46;;;;;;;2.42;0.82;;;;;;;20.73;28.72;94348.16;5004989;28;20262;-79